createdAt,value
2023-03-11T00:00:18.707Z,95.18
2023-03-11T00:03:07.400Z,71.20
2023-03-11T00:05:41.340Z,64.20
2023-03-11T00:08:10.440Z,78.38
2023-03-11T00:10:40.393Z,70.22
2023-03-11T00:13:08.865Z,48.55
2023-03-11T00:15:36.697Z,44.42
2023-03-11T00:18:03.880Z,42.15
2023-03-11T00:20:33.821Z,32.95
2023-03-11T00:23:01.478Z,36.30
2023-03-11T00:25:31.507Z,48.50
2023-03-11T00:27:59.486Z,44.00
2023-03-11T00:30:27.270Z,26.15
2023-03-11T00:32:56.843Z,20.30
2023-03-11T00:35:26.844Z,29.38
2023-03-11T00:37:56.324Z,31.35
2023-03-11T00:40:25.071Z,19.20
2023-03-11T00:42:52.916Z,17.70
2023-03-11T00:45:20.392Z,16.92
2023-03-11T00:47:47.555Z,25.63
2023-03-11T00:50:20.688Z,13.10
2023-03-11T00:52:49.116Z,12.25
2023-03-11T00:55:20.887Z,19.33
2023-03-11T00:57:48.006Z,26.17
2023-03-11T01:00:17.982Z,18.17
2023-03-11T01:02:45.076Z,11.07
2023-03-11T01:05:13.347Z,11.45
2023-03-11T01:07:40.789Z,12.85
2023-03-11T01:10:09.352Z,11.23
2023-03-11T01:12:36.478Z,13.10
2023-03-11T01:15:05.067Z,17.08
2023-03-11T01:17:32.636Z,18.38
2023-03-11T01:20:00.025Z,19.42
2023-03-11T01:22:27.059Z,21.58
2023-03-11T01:24:54.434Z,18.30
2023-03-11T01:27:21.545Z,22.38
2023-03-11T01:29:48.890Z,31.55
2023-03-11T01:32:15.924Z,18.38
2023-03-11T01:34:43.361Z,20.02
2023-03-11T01:37:10.372Z,17.17
2023-03-11T01:39:38.036Z,16.35
2023-03-11T01:42:05.419Z,17.60
2023-03-11T01:44:32.837Z,16.55
2023-03-11T01:47:02.171Z,20.30
2023-03-11T01:49:35.608Z,28.92
2023-03-11T01:52:07.910Z,19.52
2023-03-11T01:54:42.133Z,23.10
2023-03-11T01:57:12.947Z,59.45
2023-03-11T01:59:45.252Z,73.70
2023-03-11T02:02:20.288Z,26.92
2023-03-11T02:04:49.030Z,24.13
2023-03-11T02:07:16.484Z,24.60
2023-03-11T02:09:45.808Z,47.05
2023-03-11T02:12:14.260Z,43.03
2023-03-11T02:14:46.292Z,41.63
2023-03-11T02:17:13.534Z,62.70
2023-03-11T02:20:00.879Z,36.40
2023-03-11T02:22:33.608Z,55.13
2023-03-11T02:25:31.578Z,49.63
2023-03-11T02:27:59.753Z,132.77
2023-03-11T02:30:29.354Z,102.80
2023-03-11T02:32:57.089Z,58.60
2023-03-11T02:35:25.234Z,40.97
2023-03-11T02:37:54.905Z,27.05
2023-03-11T02:40:23.050Z,30.13
2023-03-11T02:43:06.325Z,24.58
2023-03-11T02:45:34.820Z,23.65
2023-03-11T02:48:02.018Z,33.25
2023-03-11T02:50:31.657Z,31.08
2023-03-11T02:52:58.800Z,28.45
2023-03-11T02:55:26.130Z,24.98
2023-03-11T02:57:53.207Z,24.55
2023-03-11T03:00:21.224Z,33.97
2023-03-11T03:02:55.675Z,56.47
2023-03-11T03:05:23.845Z,20.45
2023-03-11T03:07:51.982Z,19.75
2023-03-11T03:10:21.272Z,19.05
2023-03-11T03:12:48.735Z,18.13
2023-03-11T03:15:16.422Z,18.73
2023-03-11T03:17:44.658Z,15.88
2023-03-11T03:20:14.096Z,16.38
2023-03-11T03:22:45.240Z,24.10
2023-03-11T03:25:15.661Z,15.68
2023-03-11T03:27:43.076Z,16.85
2023-03-11T03:30:11.264Z,16.67
2023-03-11T03:32:39.666Z,25.13
2023-03-11T03:35:11.230Z,25.63
2023-03-11T03:37:55.151Z,21.38
2023-03-11T03:40:23.149Z,20.00
2023-03-11T03:42:51.669Z,20.95
2023-03-11T03:45:19.743Z,20.73
2023-03-11T03:47:47.549Z,23.08
2023-03-11T03:50:14.979Z,19.15
2023-03-11T03:52:45.287Z,17.27
2023-03-11T03:55:12.792Z,19.00
2023-03-11T03:57:40.359Z,19.25
2023-03-11T04:00:11.261Z,23.05
2023-03-11T04:02:41.878Z,20.13
2023-03-11T04:05:18.426Z,28.08
2023-03-11T04:07:46.698Z,76.53
2023-03-11T04:10:14.386Z,27.08
2023-03-11T04:12:43.725Z,21.67
2023-03-11T04:15:11.541Z,21.80
2023-03-11T04:17:40.457Z,18.33
2023-03-11T04:20:10.413Z,19.00
2023-03-11T04:22:37.830Z,19.23
2023-03-11T04:25:07.015Z,17.58
2023-03-11T04:27:34.116Z,18.60
2023-03-11T04:30:04.223Z,27.17
2023-03-11T04:32:32.473Z,18.02
2023-03-11T04:34:59.953Z,17.70
2023-03-11T04:37:29.087Z,34.70
2023-03-11T04:39:57.110Z,31.92
2023-03-11T04:42:24.978Z,27.20
2023-03-11T04:44:53.602Z,21.77
2023-03-11T04:47:22.025Z,17.85
2023-03-11T04:49:49.716Z,17.77
2023-03-11T04:52:17.079Z,18.08
2023-03-11T04:54:44.620Z,18.67
2023-03-11T04:57:11.619Z,19.33
2023-03-11T04:59:43.001Z,21.15
2023-03-11T05:02:12.912Z,31.05
2023-03-11T05:04:46.646Z,21.80
2023-03-11T05:07:16.483Z,22.50
2023-03-11T05:09:44.098Z,24.88
2023-03-11T05:12:12.518Z,31.00
2023-03-11T05:14:41.516Z,41.70
2023-03-11T05:17:10.645Z,29.77
2023-03-11T05:19:38.377Z,28.35
2023-03-11T05:22:13.657Z,26.67
2023-03-11T05:24:42.036Z,28.88
2023-03-11T05:27:09.337Z,27.92
2023-03-11T05:29:38.601Z,28.25
2023-03-11T05:32:08.220Z,28.38
2023-03-11T05:34:35.953Z,32.53
2023-03-11T05:37:04.023Z,26.20
2023-03-11T05:39:32.349Z,25.85
2023-03-11T05:41:59.357Z,26.58
2023-03-11T05:44:28.071Z,30.00
2023-03-11T05:46:56.434Z,35.28
2023-03-11T05:49:24.171Z,28.67
2023-03-11T05:51:55.298Z,28.17
2023-03-11T05:54:25.821Z,27.63
2023-03-11T05:56:53.347Z,33.15
2023-03-11T05:59:20.905Z,49.45
2023-03-11T06:01:54.431Z,31.73
2023-03-11T06:04:23.182Z,30.35
2023-03-11T06:06:50.552Z,28.30
2023-03-11T06:09:20.657Z,29.98
2023-03-11T06:11:47.756Z,32.50
2023-03-11T06:14:17.406Z,67.95
2023-03-11T06:16:48.331Z,44.58
2023-03-11T06:19:15.976Z,48.10
2023-03-11T06:21:48.053Z,44.25
2023-03-11T06:24:17.701Z,54.50
2023-03-11T06:26:45.312Z,40.22
2023-03-11T06:29:15.299Z,32.97
2023-03-11T06:31:43.693Z,29.23
2023-03-11T06:34:13.343Z,29.60
2023-03-11T06:36:40.602Z,29.33
2023-03-11T06:39:08.066Z,28.23
2023-03-11T06:41:36.827Z,30.73
2023-03-11T06:44:06.332Z,35.25
2023-03-11T06:46:36.089Z,33.10
2023-03-11T06:49:03.865Z,30.35
2023-03-11T06:51:31.664Z,31.75
2023-03-11T06:53:59.162Z,31.02
2023-03-11T06:56:27.595Z,28.33
2023-03-11T06:58:59.619Z,51.92
2023-03-11T07:01:31.265Z,40.97
2023-03-11T07:04:01.034Z,38.50
2023-03-11T07:06:29.061Z,30.85
2023-03-11T07:09:07.813Z,27.85
2023-03-11T07:11:38.232Z,27.38
2023-03-11T07:14:13.209Z,28.20
2023-03-11T07:16:45.320Z,28.50
2023-03-11T07:19:28.230Z,26.42
2023-03-11T07:21:55.502Z,27.65
2023-03-11T07:24:22.984Z,25.27
2023-03-11T07:26:50.082Z,41.92
2023-03-11T07:29:17.712Z,27.13
2023-03-11T07:31:44.978Z,27.60
2023-03-11T07:34:12.977Z,27.33
2023-03-11T07:36:42.063Z,34.33
2023-03-11T07:39:14.943Z,35.28
2023-03-11T07:41:42.447Z,24.45
2023-03-11T07:44:12.694Z,19.30
2023-03-11T07:46:39.888Z,16.50
2023-03-11T07:49:07.567Z,17.45
2023-03-11T07:51:36.238Z,16.60
2023-03-11T07:54:04.635Z,15.75
2023-03-11T07:56:33.763Z,16.88
2023-03-11T07:59:02.346Z,18.58
2023-03-11T08:01:36.519Z,17.55
2023-03-11T08:04:06.476Z,16.17
2023-03-11T08:06:34.896Z,17.00
2023-03-11T08:09:05.570Z,17.63
2023-03-11T08:11:33.077Z,28.55
2023-03-11T08:14:00.672Z,31.13
2023-03-11T08:16:28.795Z,23.63
2023-03-11T08:18:56.429Z,20.30
2023-03-11T08:21:29.092Z,16.05
2023-03-11T08:24:01.062Z,17.60
2023-03-11T08:26:28.586Z,17.17
2023-03-11T08:28:56.364Z,18.33
2023-03-11T08:31:29.532Z,20.17
2023-03-11T08:34:00.905Z,19.98
2023-03-11T08:36:28.574Z,20.20
2023-03-11T08:38:56.247Z,20.27
2023-03-11T08:41:23.519Z,21.27
2023-03-11T08:43:52.368Z,22.08
2023-03-11T08:46:38.117Z,42.22
2023-03-11T08:49:06.290Z,34.05
2023-03-11T08:51:34.233Z,22.38
2023-03-11T08:54:02.206Z,20.60
2023-03-11T08:56:29.451Z,19.20
2023-03-11T08:58:57.107Z,19.95
2023-03-11T09:01:24.251Z,20.33
2023-03-11T09:03:52.178Z,19.95
2023-03-11T09:06:19.569Z,17.73
2023-03-11T09:08:48.499Z,17.75
2023-03-11T09:11:16.810Z,18.77
2023-03-11T09:13:44.951Z,17.55
2023-03-11T09:16:21.825Z,16.33
2023-03-11T09:18:50.060Z,16.38
2023-03-11T09:21:17.248Z,17.27
2023-03-11T09:23:44.821Z,16.70
2023-03-11T09:26:13.115Z,17.88
2023-03-11T09:28:41.836Z,15.73
2023-03-11T09:31:09.357Z,17.30
2023-03-11T09:33:41.529Z,12.98
2023-03-11T09:36:12.921Z,17.13
2023-03-11T09:38:40.956Z,12.18
2023-03-11T09:41:57.977Z,13.30
2023-03-11T09:44:41.542Z,12.45
2023-03-11T09:47:32.876Z,9.63
2023-03-11T09:50:11.898Z,11.20
2023-03-11T09:53:14.590Z,15.63
2023-03-11T09:55:44.592Z,11.25
2023-03-11T09:58:16.118Z,12.23
2023-03-11T10:00:43.987Z,18.77
2023-03-11T10:03:29.665Z,14.35
2023-03-11T10:06:03.981Z,21.52
2023-03-11T10:08:57.369Z,17.77
2023-03-11T10:12:02.729Z,31.98
2023-03-11T10:14:44.972Z,17.27
2023-03-11T10:17:18.516Z,17.08
2023-03-11T10:20:09.739Z,14.48
2023-03-11T10:22:39.953Z,13.73
2023-03-11T10:25:17.909Z,13.88
2023-03-11T10:28:13.270Z,12.90
2023-03-11T10:31:03.591Z,12.15
2023-03-11T10:33:46.595Z,13.35
2023-03-11T10:36:23.993Z,10.45
2023-03-11T10:38:53.136Z,11.68
2023-03-11T10:41:34.586Z,11.77
2023-03-11T10:44:17.013Z,10.70
2023-03-11T10:46:44.017Z,12.73
2023-03-11T10:49:20.217Z,10.68
2023-03-11T10:51:49.806Z,12.43
2023-03-11T10:54:39.743Z,15.93
2023-03-11T10:57:22.659Z,16.10
2023-03-11T10:59:52.309Z,10.10
2023-03-11T11:02:43.568Z,8.77
2023-03-11T11:05:17.385Z,8.20
2023-03-11T11:08:05.070Z,7.68
2023-03-11T11:10:34.170Z,7.55
2023-03-11T11:13:04.007Z,8.07
2023-03-11T11:15:37.007Z,7.18
2023-03-11T11:18:06.853Z,6.97
2023-03-11T11:20:34.532Z,6.63
2023-03-11T11:23:02.997Z,7.60
2023-03-11T11:25:33.771Z,6.57
2023-03-11T11:28:18.683Z,8.63
2023-03-11T11:30:59.436Z,4.88
2023-03-11T11:33:28.491Z,4.47
2023-03-11T11:35:58.520Z,3.30
2023-03-11T11:38:27.372Z,3.65
2023-03-11T11:40:56.951Z,5.57
2023-03-11T11:43:39.276Z,4.95
2023-03-11T11:46:15.432Z,9.77
2023-03-11T11:48:57.287Z,4.55
2023-03-11T11:51:35.614Z,3.75
2023-03-11T11:54:07.208Z,4.60
2023-03-11T11:56:34.545Z,5.10
2023-03-11T11:59:01.668Z,4.00
2023-03-11T12:01:57.204Z,3.97
2023-03-11T12:04:33.056Z,3.03
2023-03-11T12:07:42.358Z,3.90
2023-03-11T12:10:24.038Z,3.90
2023-03-11T12:13:25.676Z,3.92
2023-03-11T12:16:34.691Z,6.45
2023-03-11T12:19:07.815Z,1.80
2023-03-11T12:21:53.406Z,2.93
2023-03-11T12:24:48.908Z,3.80
2023-03-11T12:27:26.312Z,10.30
2023-03-11T12:29:59.050Z,3.20
2023-03-11T12:32:36.638Z,2.20
2023-03-11T12:35:18.550Z,1.97
2023-03-11T12:37:46.129Z,2.40
2023-03-11T12:40:44.521Z,3.95
2023-03-11T12:43:36.073Z,3.55
2023-03-11T12:46:05.111Z,4.07
2023-03-11T12:48:36.140Z,3.10
2023-03-11T12:51:03.694Z,2.83
2023-03-11T12:53:48.013Z,3.13
2023-03-11T12:56:35.192Z,5.70
2023-03-11T12:59:14.313Z,3.90
2023-03-11T13:02:01.781Z,5.43
2023-03-11T13:04:53.677Z,4.23
2023-03-11T13:07:41.971Z,3.13
2023-03-11T13:10:20.523Z,3.53
2023-03-11T13:12:52.234Z,3.33
2023-03-11T13:15:22.162Z,3.30
2023-03-11T13:18:14.662Z,4.38
2023-03-11T13:20:41.632Z,3.50
2023-03-11T13:23:12.102Z,3.20
2023-03-11T13:25:42.938Z,4.27
2023-03-11T13:28:35.348Z,4.90
2023-03-11T13:31:39.837Z,4.43
2023-03-11T13:34:07.283Z,3.27
2023-03-11T13:36:51.487Z,3.37
2023-03-11T13:39:20.643Z,4.70
2023-03-11T13:41:47.919Z,3.63
2023-03-11T13:44:24.934Z,4.73
2023-03-11T13:47:07.917Z,7.63
2023-03-11T13:49:50.546Z,8.93
2023-03-11T13:52:29.055Z,10.97
2023-03-11T13:55:19.681Z,10.70
2023-03-11T13:57:54.967Z,6.17
2023-03-11T14:00:25.112Z,5.73
2023-03-11T14:02:55.430Z,6.03
2023-03-11T14:05:28.144Z,7.10
2023-03-11T14:07:55.240Z,5.47
2023-03-11T14:10:30.492Z,6.33
2023-03-11T14:13:18.533Z,5.60
2023-03-11T14:15:59.171Z,4.30
2023-03-11T14:18:39.248Z,4.27
2023-03-11T14:21:15.362Z,4.20
2023-03-11T14:23:47.913Z,3.80
2023-03-11T14:26:22.269Z,4.00
2023-03-11T14:28:51.942Z,5.13
2023-03-11T14:31:31.554Z,4.47
2023-03-11T14:34:04.738Z,3.60
2023-03-11T14:36:40.652Z,3.93
2023-03-11T14:39:28.802Z,4.30
2023-03-11T14:42:13.701Z,4.97
2023-03-11T14:44:42.163Z,5.20
2023-03-11T14:47:28.682Z,5.53
2023-03-11T14:49:55.897Z,6.00
2023-03-11T14:52:37.299Z,6.97
2023-03-11T14:55:14.313Z,7.57
2023-03-11T14:58:03.023Z,7.70
2023-03-11T15:00:42.017Z,9.17
2023-03-11T15:03:12.999Z,9.30
2023-03-11T15:05:46.713Z,11.17
2023-03-11T15:08:18.045Z,12.57
2023-03-11T15:11:06.488Z,11.90
2023-03-11T15:13:34.912Z,11.87
2023-03-11T15:16:05.246Z,11.40
2023-03-11T15:18:37.691Z,13.20
2023-03-11T15:21:16.403Z,14.20
2023-03-11T15:24:06.465Z,14.30
2023-03-11T15:26:35.700Z,12.93
2023-03-11T15:29:12.387Z,12.17
2023-03-11T15:31:44.915Z,13.97
2023-03-11T15:34:18.684Z,14.63
2023-03-11T15:36:59.396Z,16.83
2023-03-11T15:39:33.050Z,15.53
2023-03-11T15:42:01.213Z,12.60
2023-03-11T15:44:32.232Z,15.47
2023-03-11T15:47:00.492Z,16.97
2023-03-11T15:49:29.264Z,16.87
2023-03-11T15:51:59.954Z,18.60
2023-03-11T15:54:27.874Z,18.87
2023-03-11T15:56:56.785Z,19.67
2023-03-11T15:59:24.508Z,16.37
2023-03-11T16:01:51.548Z,22.60
2023-03-11T16:04:20.108Z,19.27
2023-03-11T16:06:59.515Z,18.80
2023-03-11T16:09:34.342Z,21.07
2023-03-11T16:12:02.296Z,21.40
2023-03-11T16:14:29.725Z,19.97
2023-03-11T16:16:56.732Z,22.83
2023-03-11T16:19:24.094Z,23.10
2023-03-11T16:21:51.075Z,22.83
2023-03-11T16:24:23.467Z,22.13
2023-03-11T16:26:52.295Z,22.87
2023-03-11T16:29:20.205Z,21.20
2023-03-11T16:31:48.954Z,23.87
2023-03-11T16:34:16.341Z,23.27
2023-03-11T16:36:43.481Z,19.60
2023-03-11T16:39:10.860Z,20.13
2023-03-11T16:41:43.070Z,21.10
2023-03-11T16:44:10.874Z,21.20
2023-03-11T16:46:38.054Z,20.37
2023-03-11T16:49:05.665Z,22.73
2023-03-11T16:51:33.522Z,22.50
2023-03-11T16:54:01.162Z,17.50
2023-03-11T16:56:28.321Z,21.00
2023-03-11T16:58:55.703Z,19.43
2023-03-11T17:01:23.067Z,22.40
2023-03-11T17:03:50.992Z,24.00
2023-03-11T17:06:19.022Z,22.70
2023-03-11T17:08:49.232Z,24.40
2023-03-11T17:11:18.157Z,22.50
2023-03-11T17:13:45.754Z,22.23
2023-03-11T17:16:13.646Z,18.70
2023-03-11T17:18:41.041Z,20.20
2023-03-11T17:21:13.489Z,20.90
2023-03-11T17:23:41.334Z,19.13
2023-03-11T17:26:15.954Z,18.30
2023-03-11T17:28:43.794Z,20.37
2023-03-11T17:31:15.742Z,18.43
2023-03-11T17:33:43.704Z,15.97
2023-03-11T17:36:14.305Z,16.53
2023-03-11T17:38:43.153Z,14.47
2023-03-11T17:41:12.694Z,16.50
2023-03-11T17:43:40.750Z,15.60
2023-03-11T17:46:09.019Z,13.07
2023-03-11T17:48:36.650Z,14.50
2023-03-11T17:51:12.318Z,14.20
2023-03-11T17:53:41.136Z,13.50
2023-03-11T17:56:08.715Z,11.77
2023-03-11T17:58:36.083Z,10.23
2023-03-11T18:01:05.570Z,12.00
2023-03-11T18:03:33.631Z,9.87
2023-03-11T18:06:03.131Z,10.47
2023-03-11T18:08:31.214Z,9.90
2023-03-11T18:11:00.548Z,9.33
2023-03-11T18:13:28.066Z,8.67
2023-03-11T18:16:04.719Z,8.97
2023-03-11T18:18:33.090Z,10.00
2023-03-11T18:21:04.709Z,9.17
2023-03-11T18:23:35.095Z,7.77
2023-03-11T18:26:03.789Z,8.80
2023-03-11T18:28:31.222Z,8.20
2023-03-11T18:31:07.599Z,9.67
2023-03-11T18:33:35.629Z,9.27
2023-03-11T18:36:16.608Z,9.70
2023-03-11T18:38:44.337Z,10.33
2023-03-11T18:41:11.674Z,10.57
2023-03-11T18:43:39.237Z,11.07
2023-03-11T18:46:12.829Z,9.73
2023-03-11T18:48:40.766Z,9.90
2023-03-11T18:51:09.059Z,9.53
2023-03-11T18:53:37.073Z,11.80
2023-03-11T18:56:14.853Z,10.03
2023-03-11T18:58:42.757Z,8.20
2023-03-11T19:01:14.364Z,10.73
2023-03-11T19:03:43.239Z,11.17
2023-03-11T19:06:13.068Z,10.67
2023-03-11T19:08:40.633Z,8.20
2023-03-11T19:11:08.638Z,6.33
2023-03-11T19:13:46.692Z,7.03
2023-03-11T19:16:16.686Z,8.10
2023-03-11T19:18:44.434Z,9.17
2023-03-11T19:21:12.757Z,9.40
2023-03-11T19:23:40.147Z,7.93
2023-03-11T19:26:07.472Z,8.70
2023-03-11T19:28:35.412Z,9.50
2023-03-11T19:31:02.512Z,8.80
2023-03-11T19:33:30.027Z,7.97
2023-03-11T19:35:59.390Z,5.90
2023-03-11T19:38:27.489Z,5.37
2023-03-11T19:41:05.126Z,4.87
2023-03-11T19:43:33.065Z,4.17
2023-03-11T19:46:00.272Z,5.70
2023-03-11T19:48:27.807Z,6.90
2023-03-11T19:50:54.960Z,5.20
2023-03-11T19:53:23.064Z,5.60
2023-03-11T19:55:54.012Z,5.07
2023-03-11T19:58:23.718Z,5.03
2023-03-11T20:00:51.046Z,7.00
2023-03-11T20:03:18.834Z,6.00
2023-03-11T20:05:47.201Z,4.13
2023-03-11T20:08:17.325Z,6.17
2023-03-11T20:10:47.149Z,3.97
2023-03-11T20:13:15.845Z,5.40
2023-03-11T20:15:43.745Z,5.27
2023-03-11T20:18:11.208Z,5.40
2023-03-11T20:20:39.411Z,5.00
2023-03-11T20:23:06.968Z,4.77
2023-03-11T20:25:34.959Z,4.20
2023-03-11T20:28:02.453Z,4.30
2023-03-11T20:30:29.635Z,4.17
2023-03-11T20:32:57.051Z,5.70
2023-03-11T20:35:24.349Z,4.90
2023-03-11T20:37:51.689Z,5.07
2023-03-11T20:40:19.225Z,4.77
2023-03-11T20:42:49.684Z,5.57
2023-03-11T20:45:22.032Z,5.27
2023-03-11T20:47:50.366Z,6.80
2023-03-11T20:50:17.804Z,6.53
2023-03-11T20:52:45.276Z,6.17
2023-03-11T20:55:12.777Z,4.57
2023-03-11T20:57:40.658Z,4.93
2023-03-11T21:00:11.694Z,4.90
2023-03-11T21:02:40.057Z,5.23
2023-03-11T21:05:08.552Z,5.60
2023-03-11T21:07:35.989Z,4.73
2023-03-11T21:10:05.376Z,4.43
2023-03-11T21:12:33.134Z,5.90
2023-03-11T21:15:00.372Z,4.80
2023-03-11T21:17:27.804Z,5.40
2023-03-11T21:19:55.076Z,3.37
2023-03-11T21:22:22.452Z,5.83
2023-03-11T21:24:53.497Z,4.83
2023-03-11T21:27:26.668Z,5.40
2023-03-11T21:29:57.927Z,4.17
2023-03-11T21:32:26.548Z,5.00
2023-03-11T21:35:00.794Z,4.97
2023-03-11T21:37:28.768Z,3.83
2023-03-11T21:39:56.113Z,5.33
2023-03-11T21:42:23.825Z,4.77
2023-03-11T21:44:51.732Z,4.80
2023-03-11T21:47:20.097Z,4.03
2023-03-11T21:49:47.201Z,4.20
2023-03-11T21:52:14.848Z,3.57
2023-03-11T21:54:42.148Z,4.77
2023-03-11T21:57:09.649Z,4.93
2023-03-11T21:59:36.635Z,4.07
2023-03-11T22:02:04.040Z,3.93
2023-03-11T22:04:31.902Z,4.87
2023-03-11T22:06:59.823Z,3.70
2023-03-11T22:09:26.910Z,4.93
2023-03-11T22:11:56.270Z,4.07
2023-03-11T22:14:23.835Z,4.23
2023-03-11T22:16:51.589Z,3.20
2023-03-11T22:19:18.862Z,3.93
2023-03-11T22:21:46.539Z,3.97
2023-03-11T22:24:13.567Z,3.90
2023-03-11T22:26:40.881Z,4.43
2023-03-11T22:29:09.046Z,3.73
2023-03-11T22:31:36.538Z,4.27
2023-03-11T22:34:03.588Z,4.10
2023-03-11T22:36:31.063Z,3.37
2023-03-11T22:38:58.047Z,4.53
2023-03-11T22:41:25.469Z,4.57
2023-03-11T22:43:52.531Z,3.63
2023-03-11T22:46:19.911Z,3.30
2023-03-11T22:48:46.988Z,3.40
2023-03-11T22:51:14.949Z,3.53
2023-03-11T22:53:42.005Z,2.60
2023-03-11T22:56:12.076Z,3.13
2023-03-11T22:58:39.247Z,2.83
2023-03-11T23:01:07.287Z,4.13
2023-03-11T23:03:35.320Z,3.70
2023-03-11T23:06:05.683Z,3.67
2023-03-11T23:08:33.041Z,3.03
2023-03-11T23:11:04.927Z,4.00
2023-03-11T23:13:32.492Z,3.03
2023-03-11T23:16:05.656Z,3.40
2023-03-11T23:18:33.043Z,3.73
2023-03-11T23:21:00.489Z,4.23
2023-03-11T23:23:27.528Z,4.50
2023-03-11T23:25:55.005Z,3.30
2023-03-11T23:28:21.991Z,3.73
2023-03-11T23:30:49.280Z,5.10
2023-03-11T23:33:16.328Z,3.60
2023-03-11T23:35:43.952Z,4.37
2023-03-11T23:38:11.012Z,4.43
2023-03-11T23:40:40.607Z,3.87
2023-03-11T23:43:07.697Z,4.07
2023-03-11T23:45:35.045Z,4.07
2023-03-11T23:48:02.091Z,3.40
2023-03-11T23:50:29.755Z,3.10
2023-03-11T23:52:56.820Z,3.97
2023-03-11T23:55:24.182Z,3.40
2023-03-11T23:57:51.193Z,3.67
